Time;durP1;ratioP1;P1;durP2;ratioP2;P2;SDS_P1;SDS_P2;PMS_P1;PMS_P2;Temp;Humidity;BMP_temperature;BMP_pressure;BME280_temperature;BME280_humidity;BME280_pressure;Samples;Min_cycle;Max_cycle;Signal;HPM_P1;HPM_P2
2023/12/26 00:02:05;;;;;;;;;;;9.90;99.90;;;;;;5068541;28;20260;-77
2023/12/26 00:04:30;;;;;;;;;;;9.80;99.90;;;;;;5066184;28;19940;-77
2023/12/26 00:06:56;;;;;;;;;;;9.90;99.90;;;;;;5069414;28;20021;-77
2023/12/26 00:09:22;;;;;;;;;;;9.90;99.90;;;;;;5070333;28;19935;-76
2023/12/26 00:11:47;;;;;;;;;;;9.90;99.90;;;;;;5057893;28;20379;-77
2023/12/26 00:14:16;;;;;;;;;;;9.90;99.90;;;;;;5072278;28;20443;-77
2023/12/26 00:16:42;;;;;;;;;;;9.90;99.90;;;;;;5071102;28;19951;-77
2023/12/26 00:19:08;;;;;;;;;;;9.90;99.90;;;;;;5068293;28;20304;-76
2023/12/26 00:21:34;;;;;;;;;;;9.90;99.90;;;;;;5077000;28;20359;-78
2023/12/26 00:23:59;;;;;;;;;;;9.90;99.90;;;;;;5072153;28;20430;-77
2023/12/26 00:26:25;;;;;;;;;;;9.90;99.90;;;;;;5072208;28;19924;-77
2023/12/26 00:28:50;;;;;;;;;;;9.90;99.90;;;;;;5071480;28;19924;-77
2023/12/26 00:31:16;;;;;;;;;;;9.90;99.90;;;;;;5074483;28;19924;-76
2023/12/26 00:33:41;;;;;;;;;;;9.90;99.90;;;;;;5069380;28;19932;-77
2023/12/26 00:36:11;;;;;;;;;;;9.80;99.90;;;;;;5055567;28;19924;-78
2023/12/26 00:38:37;;;;;;;;;;;9.80;99.90;;;;;;5069170;28;19924;-78
2023/12/26 00:41:02;;;;;;;;;;;9.80;99.90;;;;;;5069961;28;20402;-77
2023/12/26 00:43:28;;;;;;;;;;;9.80;99.90;;;;;;5069610;28;20406;-77
2023/12/26 00:45:54;;;;;;;;;;;9.90;99.90;;;;;;5071720;28;19976;-77
2023/12/26 00:48:19;;;;;;;;;;;9.80;99.90;;;;;;5064336;28;19928;-76
2023/12/26 00:50:45;;;;;;;;;;;9.80;99.90;;;;;;5060734;28;19924;-77
2023/12/26 00:53:10;;;;;;;;;;;9.80;99.90;;;;;;5087315;28;20018;-77
2023/12/26 00:55:36;;;;;;;;;;;9.80;99.90;;;;;;5082101;28;19928;-78
2023/12/26 00:58:02;;;;;;;;;;;9.70;99.90;;;;;;5084890;28;19932;-77
2023/12/26 01:00:28;;;;;;;;;;;9.70;99.90;;;;;;5079060;28;19931;-77
2023/12/26 01:02:54;;;;;;;;;;;9.70;99.90;;;;;;5078174;28;19927;-76
2023/12/26 01:05:20;;;;;;;;;;;9.70;99.90;;;;;;5083051;28;20391;-77
2023/12/26 01:07:45;;;;;;;;;;;9.70;99.90;;;;;;5081223;28;19932;-76
2023/12/26 01:10:11;;;;;;;;;;;9.60;99.90;;;;;;5080663;28;20007;-76
2023/12/26 01:12:37;;;;;;;;;;;9.60;99.90;;;;;;5079625;28;20404;-77
2023/12/26 01:15:02;;;;;;;;;;;9.60;99.90;;;;;;5079868;28;19931;-77
2023/12/26 01:17:28;;;;;;;;;;;9.60;99.90;;;;;;5077729;28;19932;-76
2023/12/26 01:19:54;;;;;;;;;;;9.60;99.90;;;;;;5079815;28;20023;-76
2023/12/26 01:22:19;;;;;;;;;;;9.60;99.90;;;;;;5081529;28;20311;-76
2023/12/26 01:24:45;;;;;;;;;;;9.60;99.90;;;;;;5082642;28;20069;-77
2023/12/26 01:27:11;;;;;;;;;;;9.60;99.90;;;;;;5082288;28;20037;-76
2023/12/26 01:29:36;;;;;;;;;;;9.70;99.90;;;;;;5078340;28;19959;-76
2023/12/26 01:32:02;;;;;;;;;;;9.60;99.90;;;;;;5079511;28;19931;-76
2023/12/26 01:34:27;;;;;;;;;;;9.50;99.90;;;;;;5081558;28;19932;-76
2023/12/26 01:36:53;;;;;;;;;;;9.50;99.90;;;;;;5062794;28;19924;-76
2023/12/26 01:39:18;;;;;;;;;;;9.50;99.90;;;;;;5074731;28;19924;-76
2023/12/26 01:41:45;;;;;;;;;;;9.50;99.90;;;;;;5083125;28;20035;-76
2023/12/26 01:44:10;;;;;;;;;;;9.50;99.90;;;;;;5075557;28;19925;-76
2023/12/26 01:46:36;;;;;;;;;;;9.60;99.90;;;;;;5078817;28;19940;-76
2023/12/26 01:49:02;;;;;;;;;;;9.60;99.90;;;;;;5080441;28;19924;-76
2023/12/26 01:51:29;;;;;;;;;;;9.60;99.90;;;;;;5101399;28;19931;-76
2023/12/26 01:53:56;;;;;;;;;;;9.60;99.90;;;;;;5100449;28;19931;-76
2023/12/26 01:56:22;;;;;;;;;;;9.50;99.90;;;;;;5085829;28;19938;-77
2023/12/26 01:58:48;;;;;;;;;;;9.60;99.90;;;;;;5080368;28;19923;-75
2023/12/26 02:01:14;;;;;;;;;;;9.60;99.90;;;;;;5104102;27;19932;-75
2023/12/26 02:03:40;;;;;;;;;;;9.60;99.90;;;;;;5102659;28;20276;-75
2023/12/26 02:06:06;;;;;;;;;;;9.60;99.90;;;;;;5096102;28;19939;-75
2023/12/26 02:08:32;;;;;;;;;;;9.60;99.90;;;;;;5081864;28;19928;-76
2023/12/26 02:10:57;;;;;;;;;;;9.60;99.90;;;;;;5100810;28;20000;-75
2023/12/26 02:13:23;;;;;;;;;;;9.50;99.90;;;;;;5099809;28;20340;-75
2023/12/26 02:15:50;;;;;;;;;;;9.50;99.90;;;;;;5103092;28;19920;-75
2023/12/26 02:18:15;;;;;;;;;;;9.50;99.90;;;;;;5098018;28;20298;-75
2023/12/26 02:20:41;;;;;;;;;;;9.50;99.90;;;;;;5084941;28;19924;-75
2023/12/26 02:23:06;;;;;;;;;;;9.50;99.90;;;;;;5086239;28;19924;-75
2023/12/26 02:25:32;;;;;;;;;;;9.50;99.90;;;;;;5081219;28;19935;-75
2023/12/26 02:27:59;;;;;;;;;;;9.40;99.90;;;;;;5086826;28;19927;-75
2023/12/26 02:30:24;;;;;;;;;;;9.40;99.90;;;;;;5068818;28;20271;-75
2023/12/26 02:32:51;;;;;;;;;;;9.40;99.90;;;;;;5082965;28;19939;-76
2023/12/26 02:35:17;;;;;;;;;;;9.30;99.90;;;;;;5082397;28;19931;-75
2023/12/26 02:37:42;;;;;;;;;;;9.40;99.90;;;;;;5083805;28;19932;-75
2023/12/26 02:40:08;;;;;;;;;;;9.30;99.90;;;;;;5066360;28;19930;-75
2023/12/26 02:42:34;;;;;;;;;;;9.30;99.90;;;;;;5076512;28;19970;-76
2023/12/26 02:44:59;;;;;;;;;;;9.20;99.90;;;;;;5082526;28;20504;-75
2023/12/26 02:47:25;;;;;;;;;;;9.20;99.90;;;;;;5085391;28;19924;-75
2023/12/26 02:49:51;;;;;;;;;;;9.20;99.90;;;;;;5081241;28;20087;-75
2023/12/26 02:52:17;;;;;;;;;;;9.10;99.90;;;;;;5085436;28;19990;-74
2023/12/26 02:54:43;;;;;;;;;;;9.20;99.90;;;;;;5080775;28;19924;-74
2023/12/26 02:57:08;;;;;;;;;;;9.10;99.90;;;;;;5097911;28;19947;-75
2023/12/26 02:59:34;;;;;;;;;;;9.10;99.90;;;;;;5100261;28;20002;-75
2023/12/26 03:01:59;;;;;;;;;;;9.10;99.90;;;;;;5098762;28;19931;-75
2023/12/26 03:04:26;;;;;;;;;;;9.00;99.90;;;;;;5082781;28;19924;-75
2023/12/26 03:06:52;;;;;;;;;;;8.90;99.90;;;;;;5083693;28;19939;-75
2023/12/26 03:09:17;;;;;;;;;;;8.90;99.90;;;;;;5081849;28;19932;-75
2023/12/26 03:11:43;;;;;;;;;;;8.90;99.90;;;;;;5100053;28;19924;-75
2023/12/26 03:14:09;;;;;;;;;;;8.80;99.90;;;;;;5101702;28;20432;-75
2023/12/26 03:16:34;;;;;;;;;;;8.70;99.90;;;;;;5083510;28;19934;-76
2023/12/26 03:19:00;;;;;;;;;;;8.70;99.90;;;;;;5084154;27;19963;-75
2023/12/26 03:21:25;;;;;;;;;;;8.70;99.90;;;;;;5086448;28;19956;-75
2023/12/26 03:23:51;;;;;;;;;;;8.60;99.90;;;;;;5106111;28;19924;-75
2023/12/26 03:26:17;;;;;;;;;;;8.60;99.90;;;;;;5105832;28;20314;-74
2023/12/26 03:28:42;;;;;;;;;;;8.60;99.90;;;;;;5088612;28;19936;-75
2023/12/26 03:31:08;;;;;;;;;;;8.60;99.90;;;;;;5100605;28;19923;-75
2023/12/26 03:33:35;;;;;;;;;;;8.50;99.90;;;;;;5102090;28;19927;-75
2023/12/26 03:36:01;;;;;;;;;;;8.50;99.90;;;;;;5103702;28;19924;-74
2023/12/26 03:38:26;;;;;;;;;;;8.50;99.90;;;;;;5084353;28;19943;-75
2023/12/26 03:40:52;;;;;;;;;;;8.40;99.90;;;;;;5084995;28;19974;-75
2023/12/26 03:43:17;;;;;;;;;;;8.40;99.90;;;;;;5081949;28;19931;-74
2023/12/26 03:45:43;;;;;;;;;;;8.40;99.90;;;;;;5104646;27;19928;-74
2023/12/26 03:48:09;;;;;;;;;;;8.40;99.90;;;;;;5068653;28;20019;-74
2023/12/26 03:50:35;;;;;;;;;;;8.40;99.90;;;;;;5078503;28;20042;-74
2023/12/26 03:53:00;;;;;;;;;;;8.40;99.90;;;;;;5082126;28;19924;-74
2023/12/26 03:55:26;;;;;;;;;;;8.30;99.90;;;;;;5086334;28;19931;-75
2023/12/26 03:57:51;;;;;;;;;;;8.30;99.90;;;;;;5103933;28;19930;-75
2023/12/26 04:00:17;;;;;;;;;;;8.30;99.90;;;;;;5084558;28;19938;-74
2023/12/26 04:02:42;;;;;;;;;;;8.30;99.90;;;;;;5103975;27;20413;-75
2023/12/26 04:05:08;;;;;;;;;;;8.30;99.90;;;;;;5103670;28;19936;-75
2023/12/26 04:07:35;;;;;;;;;;;8.30;99.90;;;;;;5083294;28;20025;-73
2023/12/26 04:10:00;;;;;;;;;;;8.30;99.90;;;;;;5081524;28;19977;-75
2023/12/26 04:12:26;;;;;;;;;;;8.30;99.90;;;;;;5101016;28;19932;-76
2023/12/26 04:14:51;;;;;;;;;;;8.30;99.90;;;;;;5107013;28;20309;-76
2023/12/26 04:17:17;;;;;;;;;;;8.20;99.90;;;;;;5081520;28;20001;-75
2023/12/26 04:19:43;;;;;;;;;;;8.20;99.90;;;;;;5104133;28;19946;-73
2023/12/26 04:22:10;;;;;;;;;;;8.20;99.90;;;;;;5105716;27;20398;-75
2023/12/26 04:24:35;;;;;;;;;;;8.20;99.90;;;;;;5103043;27;19980;-75
2023/12/26 04:27:01;;;;;;;;;;;8.20;99.90;;;;;;5085225;28;19923;-75
2023/12/26 04:29:26;;;;;;;;;;;8.20;99.90;;;;;;5086870;28;20003;-76
2023/12/26 04:31:52;;;;;;;;;;;8.20;99.90;;;;;;5097817;28;19939;-76
2023/12/26 04:34:18;;;;;;;;;;;8.20;99.90;;;;;;5103772;28;20300;-75
2023/12/26 04:36:43;;;;;;;;;;;8.30;99.90;;;;;;5100860;27;19931;-74
2023/12/26 04:39:09;;;;;;;;;;;8.20;99.90;;;;;;5103540;28;20015;-73
2023/12/26 04:41:35;;;;;;;;;;;8.20;99.90;;;;;;5082411;28;19928;-72
2023/12/26 04:44:00;;;;;;;;;;;8.30;99.90;;;;;;5088393;28;19985;-73
2023/12/26 04:46:26;;;;;;;;;;;8.30;99.90;;;;;;5100352;28;20457;-73
2023/12/26 04:48:53;;;;;;;;;;;8.30;99.90;;;;;;5103039;28;19928;-73
2023/12/26 04:51:18;;;;;;;;;;;8.30;99.90;;;;;;5097751;28;20291;-73
2023/12/26 04:53:45;;;;;;;;;;;8.30;99.90;;;;;;5102928;28;19931;-73
2023/12/26 04:56:17;;;;;;;;;;;8.30;99.90;;;;;;5103048;28;19935;-74
2023/12/26 04:58:44;;;;;;;;;;;8.40;99.90;;;;;;5085974;28;20015;-72
2023/12/26 05:01:09;;;;;;;;;;;8.40;99.90;;;;;;5083744;28;19939;-73
2023/12/26 05:03:35;;;;;;;;;;;8.50;99.90;;;;;;5086628;28;20302;-73
2023/12/26 05:06:00;;;;;;;;;;;8.50;99.90;;;;;;5102567;28;20133;-73
2023/12/26 05:08:26;;;;;;;;;;;8.60;99.90;;;;;;5101500;28;19931;-73
2023/12/26 05:10:51;;;;;;;;;;;8.70;99.90;;;;;;5084939;27;20440;-73
2023/12/26 05:13:17;;;;;;;;;;;8.70;99.90;;;;;;5082236;28;20326;-73
2023/12/26 05:15:44;;;;;;;;;;;8.70;99.90;;;;;;5102309;28;20314;-73
2023/12/26 05:18:09;;;;;;;;;;;8.80;99.90;;;;;;5103557;28;19924;-73
2023/12/26 05:20:35;;;;;;;;;;;8.80;99.90;;;;;;5080234;28;19930;-74
2023/12/26 05:23:00;;;;;;;;;;;8.90;99.90;;;;;;5101496;28;20032;-74
2023/12/26 05:25:26;;;;;;;;;;;8.90;99.90;;;;;;5101625;28;20341;-73
2023/12/26 05:27:51;;;;;;;;;;;8.90;99.90;;;;;;5082928;28;19928;-73
2023/12/26 05:30:17;;;;;;;;;;;8.90;99.90;;;;;;5058727;28;19924;-73
2023/12/26 05:32:43;;;;;;;;;;;8.90;99.90;;;;;;5082471;28;19924;-73
2023/12/26 05:35:08;;;;;;;;;;;8.90;99.90;;;;;;5101104;28;19927;-73
2023/12/26 05:37:34;;;;;;;;;;;8.90;99.90;;;;;;5100457;28;19932;-72
2023/12/26 05:39:59;;;;;;;;;;;8.90;99.90;;;;;;5104829;28;19930;-74
2023/12/26 05:42:26;;;;;;;;;;;8.90;99.90;;;;;;5101906;28;20011;-73
2023/12/26 05:44:51;;;;;;;;;;;8.90;99.90;;;;;;5075085;28;19930;-73
2023/12/26 05:47:17;;;;;;;;;;;8.90;99.90;;;;;;5088385;28;19923;-70
2023/12/26 05:49:43;;;;;;;;;;;8.90;99.90;;;;;;5102687;28;19924;-71
2023/12/26 05:52:08;;;;;;;;;;;8.90;99.90;;;;;;5085587;28;19967;-71
2023/12/26 05:54:34;;;;;;;;;;;8.80;99.90;;;;;;5086732;28;19928;-70
2023/12/26 05:56:59;;;;;;;;;;;8.70;99.90;;;;;;5087297;28;19924;-71
2023/12/26 05:59:25;;;;;;;;;;;8.70;99.90;;;;;;5085163;28;20413;-70
2023/12/26 06:01:50;;;;;;;;;;;8.60;99.90;;;;;;5083427;28;20429;-71
2023/12/26 06:04:16;;;;;;;;;;;8.50;99.90;;;;;;5054596;28;20022;-70
2023/12/26 06:06:41;;;;;;;;;;;8.50;99.90;;;;;;5100999;28;19924;-71
2023/12/26 06:09:07;;;;;;;;;;;8.50;99.90;;;;;;5102692;28;19924;-70
2023/12/26 06:11:33;;;;;;;;;;;8.40;99.90;;;;;;5082038;28;20011;-71
2023/12/26 06:13:58;;;;;;;;;;;8.30;99.90;;;;;;5097474;28;19924;-71
2023/12/26 06:16:24;;;;;;;;;;;8.30;99.90;;;;;;5083252;28;19984;-71
2023/12/26 06:18:49;;;;;;;;;;;8.20;99.90;;;;;;5097706;28;19924;-72
2023/12/26 06:21:15;;;;;;;;;;;8.20;99.90;;;;;;5084442;28;19930;-71
2023/12/26 06:23:40;;;;;;;;;;;8.20;99.90;;;;;;5083555;28;20011;-72
2023/12/26 06:26:07;;;;;;;;;;;8.20;99.90;;;;;;5080757;28;20302;-72
2023/12/26 06:28:32;;;;;;;;;;;8.20;99.90;;;;;;5077953;28;19960;-71
2023/12/26 06:30:58;;;;;;;;;;;8.30;99.90;;;;;;5082459;28;19975;-71
2023/12/26 06:33:24;;;;;;;;;;;8.30;99.90;;;;;;5088022;28;19935;-72
2023/12/26 06:35:50;;;;;;;;;;;8.30;99.90;;;;;;5086341;28;19932;-71
2023/12/26 06:38:16;;;;;;;;;;;8.30;99.90;;;;;;5135284;22;19930;-71
2023/12/26 06:40:42;;;;;;;;;;;8.30;99.90;;;;;;5139495;27;20371;-71
2023/12/26 06:43:09;;;;;;;;;;;8.30;99.90;;;;;;5098660;27;19957;-71
2023/12/26 06:45:34;;;;;;;;;;;8.20;99.90;;;;;;5113983;28;19919;-71
2023/12/26 06:48:00;;;;;;;;;;;8.20;99.90;;;;;;5120295;27;20032;-71
2023/12/26 06:50:25;;;;;;;;;;;8.20;99.90;;;;;;5119275;27;19987;-72
2023/12/26 06:52:51;;;;;;;;;;;8.20;99.90;;;;;;5118811;27;19937;-71
2023/12/26 06:55:16;;;;;;;;;;;8.20;99.90;;;;;;5126172;27;20339;-71
2023/12/26 06:57:42;;;;;;;;;;;8.20;99.90;;;;;;5123423;27;19924;-71
2023/12/26 07:00:08;;;;;;;;;;;8.20;99.90;;;;;;5120288;27;19931;-71
2023/12/26 07:02:34;;;;;;;;;;;8.20;99.90;;;;;;5127587;27;19924;-70
2023/12/26 07:05:00;;;;;;;;;;;8.10;99.90;;;;;;5124113;27;19970;-71
2023/12/26 07:07:25;;;;;;;;;;;8.10;99.90;;;;;;5126135;27;19978;-71
2023/12/26 07:09:51;;;;;;;;;;;8.10;99.90;;;;;;5122657;27;19972;-72
2023/12/26 07:12:17;;;;;;;;;;;8.10;99.90;;;;;;5124356;27;19934;-72
2023/12/26 07:14:42;;;;;;;;;;;8.10;99.90;;;;;;5146148;27;20327;-72
2023/12/26 07:17:08;;;;;;;;;;;8.10;99.90;;;;;;5121114;27;19927;-72
2023/12/26 07:19:33;;;;;;;;;;;8.10;99.90;;;;;;5122959;27;19924;-72
2023/12/26 07:21:59;;;;;;;;;;;8.10;99.90;;;;;;5123201;27;19927;-72
2023/12/26 07:24:25;;;;;;;;;;;8.10;99.90;;;;;;5125663;27;20667;-71
2023/12/26 07:26:50;;;;;;;;;;;8.10;99.90;;;;;;5125622;27;19923;-71
2023/12/26 07:29:16;;;;;;;;;;;8.10;99.90;;;;;;5132486;27;19962;-71
2023/12/26 07:31:41;;;;;;;;;;;8.00;99.90;;;;;;5124375;27;19969;-72
2023/12/26 07:34:09;;;;;;;;;;;8.10;99.90;;;;;;5121435;27;19932;-72
2023/12/26 07:36:35;;;;;;;;;;;8.10;99.90;;;;;;5126708;27;19985;-72
2023/12/26 07:39:01;;;;;;;;;;;8.10;99.90;;;;;;5117633;27;19974;-71
2023/12/26 07:41:26;;;;;;;;;;;8.10;99.90;;;;;;5122994;27;19931;-70
2023/12/26 07:43:54;;;;;;;;;;;8.10;99.90;;;;;;5125170;27;19997;-71
2023/12/26 07:46:21;;;;;;;;;;;8.10;99.90;;;;;;5121938;27;20006;-72
2023/12/26 07:48:46;;;;;;;;;;;8.10;99.90;;;;;;5124011;27;19924;-72
2023/12/26 07:51:12;;;;;;;;;;;8.20;99.90;;;;;;5125264;27;19932;-71
2023/12/26 07:53:38;;;;;;;;;;;8.20;99.90;;;;;;5122548;27;19971;-72
2023/12/26 07:56:03;;;;;;;;;;;8.20;99.90;;;;;;5119577;27;19931;-72
2023/12/26 07:58:30;;;;;;;;;;;8.20;99.90;;;;;;5122118;27;19989;-71
2023/12/26 08:00:56;;;;;;;;;;;8.30;99.90;;;;;;5124068;27;19970;-72
2023/12/26 08:03:21;;;;;;;;;;;8.30;99.90;;;;;;5124121;27;20096;-71
2023/12/26 08:05:47;;;;;;;;;;;8.20;99.90;;;;;;5122384;27;19923;-71
2023/12/26 08:08:12;;;;;;;;;;;8.20;99.90;;;;;;5101941;27;20443;-71
2023/12/26 08:10:38;;;;;;;;;;;8.20;99.90;;;;;;5123050;27;19932;-71
2023/12/26 08:13:04;;;;;;;;;;;8.20;99.90;;;;;;5126063;27;20018;-71
2023/12/26 08:15:30;;;;;;;;;;;8.20;99.90;;;;;;5119212;27;19930;-71
2023/12/26 08:17:55;;;;;;;;;;;8.30;99.90;;;;;;5119381;27;20370;-71
2023/12/26 08:20:22;;;;;;;;;;;8.30;99.90;;;;;;5122112;27;19932;-71
2023/12/26 08:22:47;;;;;;;;;;;8.40;99.90;;;;;;5123742;27;19967;-72
2023/12/26 08:25:13;;;;;;;;;;;8.50;99.90;;;;;;5118489;27;20016;-71
2023/12/26 08:27:40;;;;;;;;;;;8.50;99.90;;;;;;5140238;27;20180;-71
2023/12/26 08:30:06;;;;;;;;;;;8.50;99.90;;;;;;5123606;27;20008;-71
2023/12/26 08:32:32;;;;;;;;;;;8.50;99.90;;;;;;5123234;27;20287;-71
2023/12/26 08:34:59;;;;;;;;;;;8.50;99.90;;;;;;5127537;27;19931;-71
2023/12/26 08:37:25;;;;;;;;;;;8.50;99.90;;;;;;5120810;27;19931;-71
2023/12/26 08:39:50;;;;;;;;;;;8.60;99.90;;;;;;5118404;27;19932;-72
2023/12/26 08:42:16;;;;;;;;;;;8.60;99.90;;;;;;5114808;27;19939;-71
2023/12/26 08:44:41;;;;;;;;;;;8.50;99.90;;;;;;5115649;27;20340;-71
2023/12/26 08:47:07;;;;;;;;;;;8.50;99.90;;;;;;5118664;27;20356;-71
2023/12/26 08:49:32;;;;;;;;;;;8.50;99.90;;;;;;5125798;27;19931;-71
2023/12/26 08:52:00;;;;;;;;;;;8.40;99.90;;;;;;5117840;27;19928;-71
2023/12/26 08:54:25;;;;;;;;;;;8.40;99.90;;;;;;5115860;27;20382;-71
2023/12/26 08:56:51;;;;;;;;;;;8.40;99.90;;;;;;5116637;27;20015;-71
2023/12/26 08:59:18;;;;;;;;;;;8.40;99.90;;;;;;5120299;27;19969;-70
2023/12/26 09:01:43;;;;;;;;;;;8.50;99.90;;;;;;5116463;27;19969;-70
2023/12/26 09:04:10;;;;;;;;;;;8.50;99.90;;;;;;5120969;27;19927;-72
2023/12/26 09:06:35;;;;;;;;;;;8.50;99.90;;;;;;5117174;27;19939;-69
2023/12/26 09:09:01;;;;;;;;;;;8.50;99.90;;;;;;5115907;27;20357;-71
2023/12/26 09:11:28;;;;;;;;;;;8.50;99.90;;;;;;5118703;27;19937;-70
2023/12/26 09:13:54;;;;;;;;;;;8.50;99.90;;;;;;5136682;27;20362;-71
2023/12/26 09:16:19;;;;;;;;;;;8.50;99.90;;;;;;5111473;27;19923;-70
2023/12/26 09:18:45;;;;;;;;;;;8.60;99.90;;;;;;5112783;27;20323;-70
2023/12/26 09:21:11;;;;;;;;;;;8.60;99.90;;;;;;5118505;27;20328;-70
2023/12/26 09:23:37;;;;;;;;;;;8.60;99.90;;;;;;5120829;27;19951;-70
2023/12/26 09:26:03;;;;;;;;;;;8.60;99.90;;;;;;5117519;27;19945;-70
2023/12/26 09:28:29;;;;;;;;;;;8.60;99.90;;;;;;5116568;27;19950;-70
2023/12/26 09:30:55;;;;;;;;;;;8.60;99.90;;;;;;5117999;27;20474;-71
2023/12/26 09:33:20;;;;;;;;;;;8.60;99.90;;;;;;5117147;27;20373;-70
2023/12/26 09:35:46;;;;;;;;;;;8.70;99.90;;;;;;5121861;27;19931;-71
2023/12/26 09:38:11;;;;;;;;;;;8.70;99.90;;;;;;5124602;27;19973;-71
2023/12/26 09:40:37;;;;;;;;;;;8.80;99.90;;;;;;5123036;27;19959;-70
2023/12/26 09:43:03;;;;;;;;;;;8.90;99.90;;;;;;5111849;27;19924;-71
2023/12/26 09:45:30;;;;;;;;;;;8.90;99.90;;;;;;5119128;27;19928;-71
2023/12/26 09:47:57;;;;;;;;;;;9.00;99.90;;;;;;5115852;27;20252;-71
2023/12/26 09:50:22;;;;;;;;;;;9.00;99.90;;;;;;5119836;27;20485;-71
2023/12/26 09:52:50;;;;;;;;;;;9.00;99.90;;;;;;5120424;27;19935;-70
2023/12/26 09:55:17;;;;;;;;;;;8.90;99.90;;;;;;5118458;27;19931;-71
2023/12/26 09:57:43;;;;;;;;;;;9.00;99.90;;;;;;5099813;27;19962;-70
2023/12/26 10:00:09;;;;;;;;;;;9.00;99.90;;;;;;5102358;27;20002;-70
2023/12/26 10:02:34;;;;;;;;;;;8.90;99.90;;;;;;5120135;27;19927;-73
2023/12/26 10:05:00;;;;;;;;;;;8.90;99.90;;;;;;5123563;27;19992;-72
2023/12/26 10:07:26;;;;;;;;;;;8.90;99.90;;;;;;5121194;27;19919;-70
2023/12/26 10:09:53;;;;;;;;;;;8.90;99.90;;;;;;5117873;27;19931;-71
2023/12/26 10:12:19;;;;;;;;;;;8.90;99.90;;;;;;5120783;27;19928;-71
2023/12/26 10:14:44;;;;;;;;;;;8.90;99.90;;;;;;5122858;27;20658;-70
2023/12/26 10:17:12;;;;;;;;;;;9.00;99.90;;;;;;5116647;28;20393;-67
2023/12/26 10:19:38;;;;;;;;;;;9.00;99.90;;;;;;5103735;28;19934;-73
2023/12/26 10:22:04;;;;;;;;;;;9.00;99.90;;;;;;5105814;27;19942;-74
2023/12/26 10:24:30;;;;;;;;;;;9.00;99.90;;;;;;5130048;27;19971;-73
2023/12/26 10:26:55;;;;;;;;;;;9.00;99.90;;;;;;5130599;27;20267;-73
2023/12/26 10:29:21;;;;;;;;;;;9.00;99.90;;;;;;5127907;27;19931;-74
2023/12/26 10:31:46;;;;;;;;;;;9.00;99.90;;;;;;5122357;27;20282;-74
2023/12/26 10:34:19;;;;;;;;;;;9.00;99.90;;;;;;5127597;27;19923;-74
2023/12/26 10:36:48;;;;;;;;;;;9.00;99.90;;;;;;5128431;27;19927;-74
2023/12/26 10:39:14;;;;;;;;;;;9.00;99.90;;;;;;5134099;27;19934;-71
2023/12/26 10:41:43;;;;;;;;;;;9.10;99.90;;;;;;5109154;27;19923;-72
2023/12/26 10:44:09;;;;;;;;;;;9.10;99.90;;;;;;5120651;27;20023;-73
2023/12/26 10:46:35;;;;;;;;;;;9.20;99.90;;;;;;5129597;27;19939;-74
2023/12/26 10:49:05;;;;;;;;;;;9.20;99.90;;;;;;5120251;27;19932;-74
2023/12/26 10:51:31;;;;;;;;;;;9.20;99.90;;;;;;5128605;27;20012;-76
2023/12/26 10:54:00;;;;;;;;;;;9.10;99.90;;;;;;5104559;27;21063;-72
2023/12/26 10:56:28;;;;;;;;;;;9.10;99.90;;;;;;5106320;27;19985;-74
2023/12/26 10:58:53;;;;;;;;;;;9.10;99.90;;;;;;5112867;27;19932;-74
2023/12/26 13:52:41;;;;;;;;;;;8.10;99.90;;;;;;5104440;27;19923;-73
2023/12/26 13:55:25;;;;;;;;;;;8.00;99.90;;;;;;5104096;27;20002;-74
2023/12/26 13:58:09;;;;;;;;;;;8.00;99.90;;;;;;5106404;28;20018;-74
2023/12/26 14:00:54;;;;;;;;;;;8.00;99.90;;;;;;5102639;27;19957;-74
2023/12/26 14:03:39;;;;;;;;;;;8.00;99.90;;;;;;5099727;28;20378;-73
2023/12/26 14:06:23;;;;;;;;;;;8.00;99.90;;;;;;5096870;28;19928;-73
2023/12/26 14:09:07;;;;;;;;;;;8.00;99.90;;;;;;5093827;27;20306;-73
2023/12/26 14:11:52;;;;;;;;;;;8.10;99.90;;;;;;5087766;28;20211;-72
2023/12/26 14:14:36;;;;;;;;;;;8.00;99.90;;;;;;5105220;28;19931;-73
2023/12/26 14:17:21;;;;;;;;;;;8.00;99.90;;;;;;5110695;28;19923;-72
2023/12/26 14:20:05;;;;;;;;;;;7.90;99.90;;;;;;5120368;27;20084;-73
2023/12/26 14:22:50;;;;;;;;;;;7.90;99.90;;;;;;5092486;27;19928;-73
2023/12/26 14:25:34;;;;;;;;;;;7.80;99.90;;;;;;5106371;28;19923;-72
2023/12/26 14:28:18;;;;;;;;;;;7.80;99.90;;;;;;5105512;28;19935;-73
2023/12/26 14:31:03;;;;;;;;;;;7.70;99.90;;;;;;5125967;28;20436;-72
2023/12/26 14:33:47;;;;;;;;;;;7.60;99.90;;;;;;5105211;28;19951;-73
2023/12/26 14:36:32;;;;;;;;;;;7.50;99.90;;;;;;5123064;27;20022;-73
2023/12/26 14:38:57;;;;;;;;;;;7.50;99.90;;;;;;5129562;27;19930;-73
2023/12/26 14:41:23;;;;;;;;;;;7.50;99.90;;;;;;5117438;28;19932;-73
2023/12/26 14:43:53;;;;;;;;;;;7.50;99.90;;;;;;5098591;28;19928;-73
2023/12/26 14:46:18;;;;;;;;;;;7.50;99.90;;;;;;5107423;28;19977;-73
2023/12/26 14:48:44;;;;;;;;;;;7.50;99.90;;;;;;5121296;27;19955;-73
2023/12/26 14:51:09;;;;;;;;;;;7.50;99.90;;;;;;5121026;27;20132;-73
2023/12/26 14:53:35;;;;;;;;;;;7.50;99.90;;;;;;5124184;28;20034;-73
2023/12/26 14:56:02;;;;;;;;;;;7.40;99.90;;;;;;5120458;27;20038;-74
2023/12/26 14:58:28;;;;;;;;;;;7.40;99.90;;;;;;5105902;27;19923;-74
2023/12/26 15:00:53;;;;;;;;;;;7.30;99.90;;;;;;5123613;27;19996;-74
2023/12/26 15:03:20;;;;;;;;;;;7.20;99.90;;;;;;5127745;27;19972;-73
2023/12/26 15:05:46;;;;;;;;;;;7.10;99.90;;;;;;5104177;28;20156;-73
2023/12/26 15:08:11;;;;;;;;;;;7.10;99.90;;;;;;5116431;27;20484;-73
2023/12/26 15:10:37;;;;;;;;;;;7.00;99.90;;;;;;5125905;27;19954;-73
2023/12/26 15:13:03;;;;;;;;;;;7.00;99.90;;;;;;5127198;27;19967;-73
2023/12/26 15:15:28;;;;;;;;;;;6.90;99.90;;;;;;5130658;27;19931;-73
2023/12/26 15:17:54;;;;;;;;;;;6.90;99.90;;;;;;5101426;27;20064;-73
2023/12/26 15:20:19;;;;;;;;;;;6.80;99.90;;;;;;5125637;27;19973;-73
2023/12/26 15:22:45;;;;;;;;;;;6.80;99.90;;;;;;5093456;27;20382;-73
2023/12/26 15:25:11;;;;;;;;;;;6.80;99.90;;;;;;5132433;27;20452;-73
2023/12/26 15:27:36;;;;;;;;;;;6.80;99.90;;;;;;5128418;27;19970;-74
2023/12/26 15:30:02;;;;;;;;;;;6.70;99.90;;;;;;5127879;27;19928;-73
2023/12/26 15:32:28;;;;;;;;;;;6.70;99.90;;;;;;5126694;27;19934;-73
2023/12/26 15:34:53;;;;;;;;;;;6.70;99.90;;;;;;5128930;27;19968;-72
2023/12/26 15:37:19;;;;;;;;;;;6.70;99.90;;;;;;5095240;27;19932;-73
2023/12/26 15:39:44;;;;;;;;;;;6.70;99.90;;;;;;5105921;27;20480;-73
2023/12/26 15:42:10;;;;;;;;;;;6.70;99.90;;;;;;5128279;27;19930;-74
2023/12/26 15:44:36;;;;;;;;;;;6.70;99.90;;;;;;5123222;27;19928;-74
2023/12/26 15:47:02;;;;;;;;;;;6.70;99.90;;;;;;5126919;27;20013;-73
2023/12/26 15:49:28;;;;;;;;;;;6.70;99.90;;;;;;5129773;27;20016;-73
2023/12/26 15:51:53;;;;;;;;;;;6.80;99.90;;;;;;5129326;27;20358;-73
2023/12/26 15:54:19;;;;;;;;;;;6.80;99.90;;;;;;5128060;27;20382;-72
2023/12/26 15:56:44;;;;;;;;;;;6.80;99.90;;;;;;5113653;27;19940;-72
2023/12/26 15:59:10;;;;;;;;;;;6.90;99.90;;;;;;5131689;27;19924;-72
2023/12/26 16:01:36;;;;;;;;;;;6.90;99.90;;;;;;5105194;27;19923;-72
2023/12/26 16:04:01;;;;;;;;;;;6.90;99.90;;;;;;5127488;27;19932;-72
2023/12/26 16:06:29;;;;;;;;;;;6.90;99.90;;;;;;5130616;27;19969;-72
2023/12/26 16:08:55;;;;;;;;;;;6.80;99.90;;;;;;5130707;27;19923;-72
2023/12/26 16:11:21;;;;;;;;;;;6.80;99.90;;;;;;5126428;27;20413;-73
2023/12/26 16:13:46;;;;;;;;;;;6.70;99.90;;;;;;5113805;27;19927;-72
2023/12/26 16:16:12;;;;;;;;;;;6.70;99.90;;;;;;5123566;27;20049;-73
2023/12/26 16:18:38;;;;;;;;;;;6.60;99.90;;;;;;5109420;27;19931;-72
2023/12/26 16:21:05;;;;;;;;;;;6.50;99.90;;;;;;5108366;27;20394;-73
2023/12/26 16:23:30;;;;;;;;;;;6.50;99.90;;;;;;5109813;27;20026;-72
2023/12/26 16:25:56;;;;;;;;;;;6.50;99.90;;;;;;5110604;27;20010;-72
2023/12/26 16:28:22;;;;;;;;;;;6.40;99.90;;;;;;5130010;27;20006;-72
2023/12/26 16:30:48;;;;;;;;;;;6.30;99.90;;;;;;5105801;27;20060;-73
2023/12/26 16:33:13;;;;;;;;;;;6.30;99.90;;;;;;5106126;27;20014;-73
2023/12/26 16:35:39;;;;;;;;;;;6.20;99.90;;;;;;5128092;27;19936;-72
2023/12/26 16:38:05;;;;;;;;;;;6.20;99.90;;;;;;5128773;27;20419;-72
2023/12/26 16:40:30;;;;;;;;;;;6.20;99.90;;;;;;5109250;27;19927;-72
2023/12/26 16:42:56;;;;;;;;;;;6.10;99.90;;;;;;5107207;27;20302;-72
2023/12/26 16:45:22;;;;;;;;;;;6.10;99.90;;;;;;5112497;27;19930;-72
2023/12/26 16:47:48;;;;;;;;;;;6.10;99.90;;;;;;5127263;27;20128;-72
2023/12/26 16:50:14;;;;;;;;;;;6.10;99.90;;;;;;5121082;27;20306;-72
2023/12/26 16:52:39;;;;;;;;;;;6.20;99.90;;;;;;5126075;27;19935;-72
2023/12/26 16:55:05;;;;;;;;;;;6.10;99.90;;;;;;5105590;27;19947;-72
2023/12/26 16:57:31;;;;;;;;;;;6.10;99.90;;;;;;5109795;27;19943;-72
2023/12/26 16:59:56;;;;;;;;;;;6.10;99.90;;;;;;5109666;27;19924;-72
2023/12/26 17:02:22;;;;;;;;;;;6.10;99.90;;;;;;5105391;27;20375;-72
2023/12/26 17:04:48;;;;;;;;;;;6.10;99.90;;;;;;5108803;27;19924;-71
2023/12/26 17:07:13;;;;;;;;;;;6.10;99.90;;;;;;5109038;27;19927;-72
2023/12/26 17:09:39;;;;;;;;;;;6.00;99.90;;;;;;5110953;27;20397;-72
2023/12/26 17:12:07;;;;;;;;;;;6.00;99.90;;;;;;5075641;28;20355;-72
2023/12/26 17:14:33;;;;;;;;;;;6.00;99.90;;;;;;5092161;27;19923;-72
2023/12/26 17:16:58;;;;;;;;;;;6.00;99.90;;;;;;5127658;27;19931;-72
2023/12/26 17:19:24;;;;;;;;;;;5.90;99.90;;;;;;5122339;27;19931;-72